Time;durP1;ratioP1;P1;durP2;ratioP2;P2;SDS_P1;SDS_P2;PMS_P1;PMS_P2;Temp;Humidity;BMP_temperature;BMP_pressure;BME280_temperature;BME280_humidity;BME280_pressure;Samples;Min_cycle;Max_cycle;Signal;HPM_P1;HPM_P2
2023/10/01 00:00:19;;;;;;;7.68;3.78;;;13.90;99.90;;;14.00;100.00;101610.50;5031342;28;20468;-85
2023/10/01 00:02:48;;;;;;;8.52;3.40;;;13.90;99.90;;;13.99;100.00;101600.59;5026996;28;20116;-85
2023/10/01 00:05:14;;;;;;;8.98;3.75;;;13.90;99.90;;;13.97;100.00;101597.22;5018038;28;20128;-85
2023/10/01 00:07:40;;;;;;;8.90;4.00;;;13.90;99.90;;;13.99;100.00;101589.63;5021537;28;20155;-86
2023/10/01 00:10:13;;;;;;;7.97;3.97;;;13.90;99.90;;;13.99;100.00;101600.59;5020891;28;20045;-86
2023/10/01 00:12:44;;;;;;;9.48;3.67;;;13.90;99.90;;;13.94;100.00;101601.28;5017917;28;20164;-87
2023/10/01 00:15:14;;;;;;;6.90;3.45;;;13.90;99.90;;;13.90;100.00;101591.75;5021068;28;20045;-85
2023/10/01 00:17:45;;;;;;;7.60;3.95;;;13.90;99.90;;;13.93;100.00;101580.38;5015577;28;20046;-86
2023/10/01 00:20:29;;;;;;;7.93;3.92;;;13.90;99.90;;;13.91;100.00;101575.09;5018019;28;20033;-85
2023/10/01 00:23:03;;;;;;;9.50;3.83;;;13.90;99.90;;;13.89;100.00;101579.97;5016878;28;20044;-86
2023/10/01 00:25:30;;;;;;;10.48;3.80;;;13.90;99.90;;;13.92;100.00;101581.41;5014917;28;20037;-86
2023/10/01 00:27:59;;;;;;;7.38;3.55;;;13.80;99.90;;;13.86;100.00;101574.91;5014573;28;20037;-85
2023/10/01 00:30:33;;;;;;;7.55;3.65;;;13.80;99.90;;;13.78;100.00;101575.13;5015238;28;20026;-86
2023/10/01 00:32:59;;;;;;;9.38;3.75;;;13.70;99.90;;;13.73;100.00;101575.78;5021006;28;20038;-86
2023/10/01 00:35:26;;;;;;;7.20;3.75;;;13.70;99.90;;;13.72;100.00;101592.44;5021638;28;20034;-86
2023/10/01 00:37:52;;;;;;;9.25;4.10;;;13.60;99.90;;;13.66;100.00;101592.25;5015644;28;20037;-87
2023/10/01 00:40:19;;;;;;;11.05;4.07;;;13.60;99.90;;;13.66;100.00;101595.00;5021196;28;20038;-86
2023/10/01 00:42:46;;;;;;;10.15;4.00;;;13.60;99.90;;;13.67;100.00;101590.38;5014984;28;20437;-88
2023/10/01 00:45:13;;;;;;;7.65;3.58;;;13.60;99.90;;;13.68;100.00;101593.94;5028965;28;20045;-86
2023/10/01 00:47:42;;;;;;;7.88;3.47;;;13.60;99.90;;;13.64;100.00;101580.66;5020620;28;20034;-87
2023/10/01 00:50:12;;;;;;;8.75;3.90;;;13.50;99.90;;;13.61;100.00;101578.34;5028478;28;20041;-87
2023/10/01 00:52:40;;;;;;;7.60;4.13;;;13.50;99.90;;;13.59;100.00;101579.63;5021203;28;20148;-86
2023/10/01 00:55:08;;;;;;;10.75;4.70;;;13.50;99.90;;;13.60;100.00;101581.31;5020130;28;20068;-87
2023/10/01 00:57:37;;;;;;;8.88;3.83;;;13.50;99.90;;;13.60;100.00;101575.81;5020429;28;20052;-87
2023/10/01 01:00:09;;;;;;;10.00;3.92;;;13.50;99.90;;;13.58;100.00;101562.34;5020909;28;20034;-86
2023/10/01 01:02:38;;;;;;;9.32;4.00;;;13.50;99.90;;;13.50;100.00;101551.59;5020135;28;20443;-85
2023/10/01 01:05:34;;;;;;;10.05;3.63;;;13.50;99.90;;;13.52;100.00;101549.47;5013983;28;20053;-86
2023/10/01 01:08:29;;;;;;;7.82;4.20;;;13.50;99.90;;;13.58;100.00;101566.97;5030313;28;20080;-86
2023/10/01 01:10:56;;;;;;;8.32;3.72;;;13.50;99.90;;;13.57;100.00;101557.06;5025270;28;20080;-85
2023/10/01 01:13:24;;;;;;;9.45;3.80;;;13.50;99.90;;;13.61;100.00;101561.06;5013705;28;20029;-86
2023/10/01 01:15:51;;;;;;;9.32;4.07;;;13.50;99.90;;;13.61;100.00;101553.69;5019389;28;20060;-86
2023/10/01 01:18:21;;;;;;;9.93;4.15;;;13.60;99.90;;;13.63;100.00;101545.22;5030796;28;20113;-86
2023/10/01 01:20:48;;;;;;;8.55;4.30;;;13.60;99.90;;;13.63;100.00;101548.81;5018806;28;20061;-86
2023/10/01 01:23:21;;;;;;;7.93;3.47;;;13.60;99.90;;;13.65;100.00;101560.41;5013001;28;20030;-87
2023/10/01 01:25:52;;;;;;;9.80;4.03;;;13.60;99.90;;;13.64;100.00;101563.34;5018905;28;20144;-86
2023/10/01 01:28:27;;;;;;;7.72;3.45;;;13.60;99.90;;;13.59;100.00;101558.53;5014080;28;20116;-87
2023/10/01 01:30:58;;;;;;;9.80;3.63;;;13.60;99.90;;;13.64;100.00;101549.66;5022812;28;20042;-86
2023/10/01 01:36:20;;;;;;;8.10;3.90;;;13.60;99.90;;;13.71;100.00;101561.47;5023805;28;20044;-85
2023/10/01 01:39:27;;;;;;;8.88;3.33;;;13.60;99.90;;;13.67;100.00;101557.47;5013915;28;20034;-85
2023/10/01 01:41:54;;;;;;;8.07;3.80;;;13.60;99.90;;;13.70;100.00;101564.41;5012619;28;20057;-86
2023/10/01 01:44:20;;;;;;;9.73;3.65;;;13.60;99.90;;;13.70;100.00;101569.91;5013731;28;20541;-85
2023/10/01 01:46:49;;;;;;;8.40;3.80;;;13.70;99.90;;;13.71;100.00;101566.09;5014779;28;20086;-85
2023/10/01 01:49:17;;;;;;;8.55;3.80;;;13.70;99.90;;;13.72;100.00;101578.75;5035289;28;20061;-86
2023/10/01 01:51:56;;;;;;;10.82;3.88;;;13.70;99.90;;;13.73;100.00;101574.94;5014821;28;20112;-86
2023/10/01 01:54:29;;;;;;;11.25;3.47;;;13.60;99.90;;;13.73;100.00;101556.59;5014115;28;20041;-86
2023/10/01 01:56:57;;;;;;;7.57;3.88;;;13.70;99.90;;;13.74;100.00;101544.56;5022797;28;20037;-85
2023/10/01 01:59:27;;;;;;;10.13;3.70;;;13.70;99.90;;;13.77;100.00;101560.59;5025409;28;20041;-85
2023/10/01 02:01:56;;;;;;;8.93;3.70;;;13.70;99.90;;;13.82;100.00;101554.47;5040538;28;20041;-86
2023/10/01 02:04:23;;;;;;;7.00;3.42;;;13.70;99.90;;;13.85;100.00;101548.53;5027653;28;20025;-85
2023/10/01 02:06:54;;;;;;;11.63;3.80;;;13.80;99.90;;;13.81;100.00;101544.56;5034139;28;20053;-85
2023/10/01 02:09:20;;;;;;;11.23;3.80;;;13.80;99.90;;;13.85;100.00;101551.28;5028943;28;20034;-84
2023/10/01 02:11:52;;;;;;;8.52;3.70;;;13.80;99.90;;;13.87;100.00;101556.53;5014803;28;20038;-86
2023/10/01 02:14:31;;;;;;;8.50;3.70;;;13.80;99.90;;;13.85;100.00;101543.06;5028000;28;20059;-86
2023/10/01 02:17:03;;;;;;;9.65;3.40;;;13.80;99.90;;;13.83;100.00;101536.09;5015962;28;20137;-86
2023/10/01 02:19:29;;;;;;;9.13;3.50;;;13.80;99.90;;;13.87;100.00;101540.94;5014120;28;20092;-87
2023/10/01 02:22:05;;;;;;;6.45;3.50;;;13.80;99.90;;;13.85;100.00;101534.84;5013584;28;20033;-84
2023/10/01 02:27:26;;;;;;;8.25;3.63;;;13.80;99.90;;;13.84;100.00;101546.00;5022521;28;20029;-87
2023/10/01 02:32:49;;;;;;;7.70;3.58;;;13.80;99.90;;;13.83;100.00;101547.94;5012829;28;20113;-86
2023/10/01 02:35:36;;;;;;;7.13;3.60;;;13.80;99.90;;;13.78;100.00;101539.47;5014436;28;20038;-86
2023/10/01 02:38:07;;;;;;;8.85;3.83;;;13.80;99.90;;;13.84;100.00;101546.00;5012472;28;20089;-86
2023/10/01 02:40:37;;;;;;;8.73;3.50;;;13.80;99.90;;;13.80;100.00;101548.38;5016989;28;20182;-87
2023/10/01 02:43:12;;;;;;;7.72;3.28;;;13.80;99.90;;;13.83;100.00;101541.59;5023279;28;20026;-85
2023/10/01 02:45:41;;;;;;;9.30;3.42;;;13.80;99.90;;;13.82;100.00;101535.28;5012624;28;20038;-85
2023/10/01 02:48:16;;;;;;;9.68;3.78;;;13.80;99.90;;;13.74;100.00;101527.25;5013297;28;20136;-86
2023/10/01 02:50:52;;;;;;;7.00;3.00;;;13.80;99.90;;;13.75;100.00;101539.91;5032731;28;20429;-85
2023/10/01 02:53:23;;;;;;;8.13;3.33;;;13.70;99.90;;;13.65;100.00;101527.50;5016958;28;20572;-84
2023/10/01 02:55:52;;;;;;;8.18;3.15;;;13.70;99.90;;;13.60;100.00;101521.84;5016043;28;20049;-84
2023/10/01 02:58:28;;;;;;;6.80;3.50;;;13.60;99.90;;;13.60;100.00;101535.56;5013240;28;20034;-86
2023/10/01 03:00:55;;;;;;;6.65;3.33;;;13.60;99.90;;;13.54;100.00;101522.72;5015331;28;20117;-86
2023/10/01 03:03:31;;;;;;;7.78;3.70;;;13.50;99.90;;;13.50;100.00;101515.94;5016829;28;20477;-85
2023/10/01 03:05:59;;;;;;;7.70;3.47;;;13.50;99.90;;;13.47;100.00;101513.66;5034625;28;20026;-85
2023/10/01 03:11:05;;;;;;;6.93;3.67;;;13.40;99.90;;;13.36;100.00;101505.00;5016162;28;20033;-85
2023/10/01 03:13:32;;;;;;;11.90;3.97;;;13.30;99.90;;;13.32;100.00;101509.25;5015273;28;20481;-86
2023/10/01 03:18:54;;;;;;;9.68;4.15;;;13.30;99.90;;;13.31;100.00;101513.03;5020103;28;20045;-86
2023/10/01 03:22:15;;;;;;;7.82;3.78;;;13.30;99.90;;;13.31;100.00;101517.66;5024738;28;20068;-87
2023/10/01 03:24:10;;;;;;;10.57;4.07;;;13.20;99.90;;;13.28;100.00;101518.09;5015915;28;20113;-87
2023/10/01 03:26:44;;;;;;;8.70;4.13;;;13.20;99.90;;;13.25;100.00;101516.59;5016319;28;20124;-85
2023/10/01 03:29:15;;;;;;;8.02;3.60;;;13.20;99.90;;;13.23;100.00;101515.97;5015549;28;20112;-86
2023/10/01 03:31:46;;;;;;;6.35;3.63;;;13.20;99.90;;;13.18;100.00;101510.31;5015747;28;20042;-87
2023/10/01 03:34:28;;;;;;;6.70;3.70;;;13.10;99.90;;;13.08;100.00;101495.16;5021946;28;20041;-87
2023/10/01 03:36:58;;;;;;;8.70;3.83;;;13.10;99.90;;;13.08;100.00;101502.53;5016643;28;20056;-86
2023/10/01 03:39:27;;;;;;;11.70;3.80;;;13.00;99.90;;;13.07;100.00;101509.91;5016935;28;20033;-86
2023/10/01 03:42:04;;;;;;;11.25;4.05;;;13.00;99.90;;;13.07;100.00;101503.56;5013430;28;20034;-86
2023/10/01 03:47:14;;;;;;;7.00;3.42;;;13.00;99.90;;;13.09;100.00;101502.31;5019061;28;20026;-86
2023/10/01 03:49:44;;;;;;;8.93;4.13;;;13.00;99.90;;;13.09;100.00;101507.78;5016047;28;20568;-85
2023/10/01 03:52:13;;;;;;;9.20;3.85;;;13.00;99.90;;;13.14;100.00;101506.31;5023169;28;20045;-88
2023/10/01 03:55:00;;;;;;;11.05;3.63;;;13.10;99.90;;;13.17;100.00;101508.63;5019951;28;20095;-85
2023/10/01 03:57:30;;;;;;;8.82;3.90;;;13.10;99.90;;;13.19;100.00;101501.03;5018207;28;20141;-86
2023/10/01 03:59:57;;;;;;;9.18;3.85;;;13.20;99.90;;;13.21;100.00;101502.50;5023750;28;20046;-86
2023/10/01 04:02:28;;;;;;;6.57;3.67;;;13.20;99.90;;;13.29;100.00;101514.28;5027358;28;20069;-85
2023/10/01 04:04:57;;;;;;;8.23;3.45;;;13.20;99.90;;;13.24;100.00;101502.06;5029701;28;20045;-86
2023/10/01 04:07:45;;;;;;;10.63;4.03;;;13.20;99.90;;;13.28;100.00;101512.59;5037871;28;20033;-85
2023/10/01 04:10:13;;;;;;;10.02;3.72;;;13.30;99.90;;;13.31;100.00;101510.28;5033559;28;20065;-85
2023/10/01 04:12:50;;;;;;;8.23;3.42;;;13.30;99.90;;;13.33;100.00;101510.91;5032014;28;20053;-87
2023/10/01 04:15:55;;;;;;;9.93;4.00;;;13.30;99.90;;;13.32;100.00;101513.84;5039342;28;20042;-86
2023/10/01 04:23:31;;;;;;;8.05;3.88;;;13.30;99.90;;;13.35;100.00;101521.66;5022430;28;20080;-86
2023/10/01 04:26:05;;;;;;;8.60;4.05;;;13.30;99.90;;;13.36;100.00;101515.97;5042683;28;20507;-86
2023/10/01 04:28:46;;;;;;;8.50;3.80;;;13.30;99.90;;;13.32;100.00;101511.97;5020536;28;20041;-87
2023/10/01 04:31:18;;;;;;;8.00;3.45;;;13.30;99.90;;;13.38;100.00;101515.75;5028087;28;20042;-85
2023/10/01 04:33:50;;;;;;;8.20;3.80;;;13.40;99.90;;;13.37;100.00;101509.44;5014732;28;20042;-86
2023/10/01 04:36:17;;;;;;;8.35;3.50;;;13.40;99.90;;;13.41;100.00;101515.34;5017581;28;20501;-87
2023/10/01 04:38:45;;;;;;;7.60;3.13;;;13.40;99.90;;;13.43;100.00;101506.91;5014277;28;20064;-86
2023/10/01 04:41:16;;;;;;;7.45;3.75;;;13.40;99.90;;;13.43;100.00;101502.28;5019223;28;20299;-85
2023/10/01 04:43:55;;;;;;;8.75;3.83;;;13.40;99.90;;;13.47;100.00;101505.41;5014219;28;20061;-87
2023/10/01 04:46:29;;;;;;;10.48;3.70;;;13.40;99.90;;;13.48;100.00;101512.59;5014906;28;20535;-88
2023/10/01 04:48:56;;;;;;;7.85;3.70;;;13.40;99.90;;;13.48;100.00;101509.84;5015277;28;20042;-87
2023/10/01 04:51:22;;;;;;;8.32;3.70;;;13.40;99.90;;;13.40;100.00;101504.56;5017820;28;20553;-87
2023/10/01 04:53:49;;;;;;;6.13;3.38;;;13.40;99.90;;;13.44;100.00;101514.06;5035003;28;20096;-86
2023/10/01 04:56:20;;;;;;;7.60;3.90;;;13.40;99.90;;;13.43;100.00;101517.88;5013826;28;20488;-87
2023/10/01 04:58:51;;;;;;;8.27;3.70;;;13.40;99.90;;;13.36;100.00;101510.50;5020320;28;20029;-86
2023/10/01 05:01:24;;;;;;;8.18;4.15;;;13.40;99.90;;;13.38;100.00;101516.59;5015270;28;20069;-87
2023/10/01 05:03:52;;;;;;;9.68;3.83;;;13.30;99.90;;;13.36;100.00;101510.50;5014215;28;20049;-87
2023/10/01 05:06:19;;;;;;;12.00;3.90;;;13.30;99.90;;;13.28;100.00;101507.13;5012969;28;20037;-86
2023/10/01 05:08:49;;;;;;;9.70;4.00;;;13.30;99.90;;;13.28;100.00;101513.47;5028470;28;20061;-86
2023/10/01 05:11:20;;;;;;;7.45;3.63;;;13.20;99.90;;;13.23;100.00;101516.84;5023287;28;20025;-86
2023/10/01 05:13:47;;;;;;;11.70;4.10;;;13.20;99.90;;;13.13;100.00;101502.75;5025441;28;20041;-86
2023/10/01 05:16:18;;;;;;;9.63;4.32;;;13.10;99.90;;;13.15;100.00;101513.47;5029074;28;20060;-87
2023/10/01 05:18:45;;;;;;;8.82;3.65;;;13.10;99.90;;;13.13;100.00;101504.63;5021720;28;20406;-86
2023/10/01 05:21:13;;;;;;;9.82;4.10;;;13.10;99.90;;;13.08;100.00;101500.63;5023220;28;20113;-86
2023/10/01 05:23:40;;;;;;;8.30;4.30;;;13.10;99.90;;;13.08;100.00;101488.81;5014216;28;20038;-86
2023/10/01 05:26:10;;;;;;;9.07;4.10;;;13.10;99.90;;;13.14;100.00;101506.31;5022743;28;20051;-85
2023/10/01 05:28:42;;;;;;;9.88;4.65;;;13.00;99.90;;;13.13;100.00;101496.41;5030095;28;20040;-86
2023/10/01 05:31:12;;;;;;;9.30;4.05;;;13.10;99.90;;;13.18;100.00;101511.16;5022340;28;20034;-83
2023/10/01 05:33:39;;;;;;;8.48;4.00;;;13.20;99.90;;;13.27;100.00;101505.44;5030376;28;20037;-86
2023/10/01 05:36:06;;;;;;;7.78;3.95;;;13.20;99.90;;;13.30;100.00;101511.34;5030704;28;20038;-85
2023/10/01 05:38:34;;;;;;;8.55;4.40;;;13.20;99.90;;;13.30;100.00;101505.88;5037277;28;20045;-86
2023/10/01 05:41:09;;;;;;;;;;;13.30;99.90;;;13.35;100.00;101511.53;5033620;28;20042;-86
2023/10/01 05:43:43;;;;;;;8.70;4.13;;;13.40;99.90;;;13.37;100.00;101520.41;5019133;28;19917;-86
2023/10/01 05:46:09;;;;;;;11.55;4.05;;;13.40;99.90;;;13.49;100.00;101522.50;5029018;28;20041;-86
2023/10/01 05:48:37;;;;;;;8.50;3.97;;;13.50;99.90;;;13.56;100.00;101530.69;5017246;28;20481;-87
2023/10/01 05:51:06;;;;;;;10.60;4.40;;;13.50;99.90;;;13.54;100.00;101525.44;5022858;28;20045;-84
2023/10/01 05:53:32;;;;;;;8.98;4.03;;;13.60;99.90;;;13.60;100.00;101530.06;5023028;28;20061;-87
2023/10/01 05:56:17;;;;;;;7.75;3.90;;;13.60;99.90;;;13.70;100.00;101537.84;5024985;28;20132;-86
2023/10/01 05:58:44;;;;;;;7.97;4.07;;;13.70;99.90;;;13.78;100.00;101534.00;5015233;28;20034;-86
2023/10/01 06:01:14;;;;;;;7.60;3.95;;;13.70;99.90;;;13.81;100.00;101525.38;5016605;28;20034;-87
2023/10/01 06:03:46;;;;;;;7.65;3.85;;;13.70;99.90;;;13.83;100.00;101531.47;5020951;28;20529;-85
2023/10/01 06:06:25;;;;;;;8.18;3.88;;;13.80;99.90;;;13.88;100.00;101530.78;5016426;28;20034;-85
2023/10/01 06:09:00;;;;;;;;;;;13.90;99.90;;;13.98;100.00;101530.34;5029023;28;20441;-87
2023/10/01 06:15:08;;;;;;;9.25;4.18;;;14.00;99.90;;;14.02;100.00;101535.19;5013702;28;20053;-85
2023/10/01 06:17:04;;;;;;;12.55;3.85;;;14.10;99.90;;;14.19;100.00;101529.16;5016197;28;20582;-87
2023/10/01 06:19:38;;;;;;;7.40;4.07;;;14.10;99.90;;;14.19;100.00;101524.53;4999700;28;20053;-88
2023/10/01 06:22:13;;;;;;;12.35;3.80;;;14.20;99.90;;;14.23;100.00;101514.78;5022937;28;20049;-87
2023/10/01 06:24:43;;;;;;;8.00;4.20;;;14.20;99.90;;;14.19;100.00;101509.97;5023959;28;20037;-86
2023/10/01 06:27:12;;;;;;;8.10;3.90;;;14.20;99.90;;;14.13;100.00;101508.97;5012998;28;20389;-86
2023/10/01 06:29:51;;;;;;;11.68;3.75;;;14.20;99.90;;;13.98;100.00;101511.13;5019068;28;20390;-86
2023/10/01 06:32:22;;;;;;;9.85;3.80;;;14.10;99.90;;;13.94;100.00;101511.56;5019001;28;20530;-86
2023/10/01 06:34:51;;;;;;;10.95;4.43;;;14.00;99.90;;;13.91;100.00;101516.66;5016236;28;20476;-86
2023/10/01 06:37:19;;;;;;;7.30;3.58;;;14.00;99.90;;;13.86;100.00;101509.09;5015645;28;20463;-87
2023/10/01 06:39:46;;;;;;;9.07;4.10;;;14.00;99.90;;;13.89;100.00;101508.66;5017499;28;20045;-85
2023/10/01 06:42:18;;;;;;;8.15;3.88;;;14.00;99.90;;;14.04;100.00;101496.53;5005139;28;20042;-84
2023/10/01 06:44:55;;;;;;;8.48;4.07;;;14.10;99.90;;;14.19;100.00;101510.81;5021857;28;20034;-87
2023/10/01 06:47:22;;;;;;;12.65;4.72;;;14.20;99.90;;;14.38;100.00;101517.22;5027758;28;20037;-88
2023/10/01 06:52:41;;;;;;;8.52;3.78;;;14.50;99.90;;;14.58;100.00;101526.38;5016476;28;20030;-86
2023/10/01 06:55:25;;;;;;;7.63;4.15;;;14.60;99.90;;;14.62;100.00;101531.22;5017065;28;20042;-88
2023/10/01 06:57:52;;;;;;;7.82;3.75;;;14.60;99.90;;;14.82;100.00;101531.09;5017662;28;20084;-86
2023/10/01 07:00:22;;;;;;;10.77;4.32;;;14.80;99.90;;;15.00;100.00;101542.38;5030333;28;20041;-88
2023/10/01 07:02:51;;;;;;;6.82;4.05;;;14.90;99.90;;;15.12;100.00;101539.72;5018128;28;20095;-85
2023/10/01 07:05:20;;;;;;;8.73;3.75;;;15.10;99.90;;;15.29;100.00;101538.06;5028250;28;20161;-88
2023/10/01 07:07:48;;;;;;;11.98;3.88;;;15.30;99.90;;;15.47;100.00;101555.69;5018507;28;20091;-88
2023/10/01 07:10:19;;;;;;;7.65;3.70;;;15.40;99.90;;;15.56;100.00;101546.03;5022462;28;20030;-85
2023/10/01 07:12:57;;;;;;;8.45;3.45;;;15.60;99.90;;;15.66;100.00;101553.78;5027116;28;20515;-84
2023/10/01 07:15:26;;;;;;;6.97;3.90;;;15.70;99.90;;;15.76;100.00;101545.81;5021896;28;20042;-87
2023/10/01 07:17:52;;;;;;;7.55;3.78;;;15.70;99.90;;;15.83;100.00;101551.25;5027122;28;20120;-88
2023/10/01 07:20:18;;;;;;;10.45;3.95;;;15.80;99.90;;;16.04;100.00;101549.13;5019935;28;20045;-86
2023/10/01 07:22:44;;;;;;;7.85;3.72;;;16.00;99.90;;;16.23;100.00;101553.53;5022328;28;20469;-86
2023/10/01 07:25:37;;;;;;;6.90;3.47;;;16.20;99.90;;;16.28;100.00;101566.56;5019909;28;20069;-84
2023/10/01 07:28:06;;;;;;;9.55;3.47;;;16.20;99.90;;;16.35;100.00;101549.97;5022899;28;20362;-88
2023/10/01 07:30:45;;;;;;;8.77;3.70;;;16.30;99.90;;;16.52;100.00;101550.13;5025455;28;20034;-87
2023/10/01 07:33:14;;;;;;;10.55;3.50;;;16.40;99.90;;;16.61;100.00;101564.41;5032778;28;20045;-86
2023/10/01 07:35:44;;;;;;;8.60;3.35;;;16.50;99.90;;;16.66;100.00;101550.78;5041687;28;20048;-88
2023/10/01 07:38:13;;;;;;;8.25;3.85;;;16.50;99.90;;;16.66;100.00;101548.03;5019670;28;20454;-86
2023/10/01 07:43:39;;;;;;;8.23;3.58;;;16.60;99.90;;;16.60;100.00;101540.69;5034272;28;20049;-88
2023/10/01 07:46:07;;;;;;;6.53;3.15;;;16.70;99.90;;;16.74;100.00;101564.22;5025036;28;20038;-88
2023/10/01 07:48:33;;;;;;;8.48;3.70;;;16.80;99.90;;;16.99;100.00;101571.50;5038223;28;20103;-88
2023/10/01 07:51:02;;;;;;;6.25;3.17;;;16.90;99.90;;;17.19;100.00;101559.25;5016514;28;20038;-88
2023/10/01 07:53:34;;;;;;;8.00;3.65;;;17.10;99.90;;;17.29;100.00;101559.53;5032642;28;20046;-86
2023/10/01 07:56:02;;;;;;;7.18;3.55;;;17.20;99.90;;;17.19;100.00;101553.75;5023276;28;20406;-86
2023/10/01 07:58:47;;;;;;;7.53;3.17;;;17.20;99.90;;;17.27;100.00;101558.06;5030732;28;20493;-88
2023/10/01 08:01:32;;;;;;;7.47;3.83;;;;;;;17.54;100.00;101556.50;5016453;28;20495;-88
2023/10/01 08:03:58;;;;;;;7.95;3.80;;;17.40;99.90;;;17.30;100.00;101550.19;5009836;28;20458;-85
2023/10/01 08:06:49;;;;;;;8.63;3.35;;;17.40;99.90;;;17.18;100.00;101552.94;5018570;28;20077;-86
2023/10/01 08:09:13;;;;;;;7.75;3.67;;;17.20;99.90;;;17.24;100.00;101551.97;5023316;28;20089;-86
2023/10/01 08:11:58;;;;;;;7.47;3.17;;;17.20;99.90;;;17.01;100.00;101558.31;5027549;28;20038;-88
2023/10/01 08:14:33;;;;;;;8.40;3.30;;;17.20;99.90;;;17.22;100.00;101554.13;5016190;28;20073;-87
2023/10/01 08:17:05;;;;;;;8.20;3.60;;;17.30;99.90;;;17.88;100.00;101561.38;5013848;28;20453;-87
2023/10/01 08:19:49;;;;;;;6.80;3.13;;;17.80;99.90;;;18.03;100.00;101565.53;5020852;28;20065;-90
2023/10/01 08:22:22;;;;;;;6.50;3.05;;;;;;;18.27;100.00;101566.31;5018768;28;20038;-90
2023/10/01 08:24:49;;;;;;;8.48;3.42;;;;;;;18.34;100.00;101563.41;5027140;28;20041;-87
2023/10/01 08:27:32;;;;;;;6.38;3.28;;;;;;;18.47;100.00;101562.28;5014959;28;20033;-89
2023/10/01 08:32:49;;;;;;;5.90;3.13;;;18.60;99.90;;;18.37;100.00;101560.97;5017689;28;20050;-84
2023/10/01 08:35:23;;;;;;;6.35;3.40;;;18.60;99.90;;;18.43;100.00;101567.44;5022014;28;20048;-86
2023/10/01 08:37:49;;;;;;;7.38;3.28;;;18.50;99.90;;;17.92;100.00;101570.81;5020794;28;20060;-88
2023/10/01 08:40:17;;;;;;;7.93;3.60;;;18.20;99.90;;;17.85;100.00;101567.38;5019370;28;20026;-86
2023/10/01 08:42:44;;;;;;;7.00;3.40;;;18.00;99.90;;;17.93;100.00;101579.97;5025997;28;20056;-85
2023/10/01 08:45:12;;;;;;;7.22;3.75;;;17.90;99.90;;;17.89;100.00;101576.84;5015341;28;20026;-87
2023/10/01 08:47:38;;;;;;;8.40;3.75;;;17.90;99.90;;;17.81;100.00;101580.81;5015189;28;20030;-87
2023/10/01 08:52:56;;;;;;;7.72;3.25;;;18.00;99.90;;;18.19;100.00;101578.59;5015157;28;20616;-86
2023/10/01 08:55:39;;;;;;;8.52;3.20;;;18.10;99.90;;;18.35;100.00;101584.41;5021480;28;20083;-86
2023/10/01 08:58:15;;;;;;;7.35;3.40;;;18.30;99.90;;;18.62;100.00;101584.63;5022409;28;20037;-87
2023/10/01 09:00:49;;;;;;;6.43;3.35;;;18.40;99.90;;;18.93;100.00;101587.94;5021914;28;20042;-86
2023/10/01 09:04:29;;;;;;;5.95;2.80;;;18.70;99.90;;;19.32;100.00;101584.44;5026334;28;20037;-87
2023/10/01 09:06:08;;;;;;;7.15;3.33;;;19.10;99.90;;;19.14;100.00;101587.47;5032364;28;20128;-88
2023/10/01 09:08:45;;;;;;;6.03;2.90;;;19.20;99.90;;;19.38;100.00;101594.50;5013171;28;20034;-88
2023/10/01 09:11:16;;;;;;;7.32;2.92;;;19.40;99.90;;;19.31;100.00;101582.75;5014039;28;20108;-85
2023/10/01 09:16:42;;;;;;;6.28;3.13;;;19.40;99.90;;;19.13;100.00;101585.81;5024638;28;20073;-85
2023/10/01 09:19:50;;;;;;;7.10;2.63;;;19.40;99.90;;;19.29;100.00;101579.41;5023273;28;20057;-86
2023/10/01 09:25:25;;;;;;;7.22;2.90;;;19.60;99.90;;;19.80;100.00;101581.25;5014717;28;20037;-90
2023/10/01 09:28:03;;;;;;;5.90;2.83;;;19.80;99.90;;;19.95;100.00;101575.09;5022268;28;20041;-88
2023/10/01 09:30:31;;;;;;;9.07;3.30;;;;;;;19.84;100.00;101580.47;5024702;28;20045;-86
2023/10/01 09:33:05;;;;;;;5.55;2.95;;;19.90;99.90;;;19.79;100.00;101577.66;5018295;28;20041;-87
2023/10/01 09:35:58;;;;;;;8.35;3.55;;;19.80;99.90;;;19.66;100.00;101578.84;5018787;28;20029;-89
2023/10/01 09:38:28;;;;;;;8.15;3.20;;;19.70;99.90;;;19.72;100.00;101573.38;5015796;28;20038;-88
2023/10/01 09:40:58;;;;;;;7.40;2.95;;;19.70;99.90;;;20.14;100.00;101574.75;5016874;28;20036;-85
2023/10/01 09:43:24;;;;;;;7.63;2.90;;;;;;;20.34;100.00;101583.31;5016711;28;20088;-88
2023/10/01 09:45:52;;;;;;;8.52;3.72;;;20.00;99.90;;;19.83;100.00;101576.03;5037818;28;20064;-90
2023/10/01 09:48:37;;;;;;;9.70;3.55;;;20.00;99.90;;;20.02;100.00;101585.97;5032232;28;20129;-88
2023/10/01 09:51:16;;;;;;;8.23;3.03;;;20.00;99.90;;;20.02;100.00;101580.44;5027245;28;20166;-84
2023/10/01 09:54:04;;;;;;;8.60;3.30;;;20.10;99.90;;;19.76;100.00;101582.84;5022766;28;20068;-84
2023/10/01 09:56:31;;;;;;;7.55;3.20;;;19.90;99.90;;;19.54;100.00;101578.97;5023025;28;20040;-88
2023/10/01 09:59:07;;;;;;;8.43;3.13;;;19.70;99.90;;;19.43;100.00;101579.06;5021588;28;20034;-84
2023/10/01 10:01:36;;;;;;;7.53;3.33;;;19.50;99.90;;;19.32;100.00;101587.19;5018310;28;20106;-84
2023/10/01 10:04:10;;;;;;;8.07;3.17;;;19.50;99.90;;;19.59;100.00;101574.59;5016622;28;20026;-87
2023/10/01 10:06:39;;;;;;;10.82;3.47;;;19.50;99.90;;;19.77;100.00;101573.44;5013137;28;20038;-88
2023/10/01 10:09:25;;;;;;;7.38;3.50;;;19.90;99.90;;;20.19;100.00;101563.75;5021165;28;20041;-83
2023/10/01 10:11:51;;;;;;;7.90;3.40;;;20.20;99.90;;;20.52;100.00;101565.47;5033025;28;20045;-83
2023/10/01 10:14:25;;;;;;;12.30;3.75;;;20.60;99.90;;;20.67;100.00;101572.25;5016121;28;20472;-84
2023/10/01 10:17:18;;;;;;;7.40;3.50;;;20.70;99.90;;;20.47;100.00;101565.44;5013778;28;20397;-83
2023/10/01 10:20:16;;;;;;;7.18;3.42;;;20.70;99.90;;;19.72;100.00;101556.78;5019753;28;20115;-89
2023/10/01 10:23:16;;;;;;;7.70;3.58;;;20.20;99.90;;;20.06;100.00;101563.06;5013816;28;20052;-87
2023/10/01 10:25:45;;;;;;;10.07;3.58;;;20.10;99.90;;;20.00;100.00;101557.72;5014279;28;20030;-87
2023/10/01 10:28:25;;;;;;;9.93;4.00;;;20.10;99.90;;;20.18;100.00;101559.28;5026119;28;20038;-87
2023/10/01 10:31:33;;;;;;;7.68;3.45;;;20.10;99.90;;;20.12;100.00;101566.69;5019932;28;20500;-85
2023/10/01 10:34:25;;;;;;;8.52;3.67;;;20.10;99.90;;;19.80;100.00;101564.63;5013131;28;20544;-85
2023/10/01 10:36:54;;;;;;;8.18;3.30;;;19.90;99.90;;;19.55;100.00;101560.41;5022622;28;20428;-87
2023/10/01 10:39:44;;;;;;;11.88;3.67;;;19.80;99.90;;;19.80;100.00;101561.84;5014098;28;20109;-85
2023/10/01 10:42:31;;;;;;;9.10;3.70;;;19.90;99.90;;;19.77;100.00;101560.47;5017535;28;20060;-85
2023/10/01 10:45:27;;;;;;;12.90;3.78;;;19.90;99.90;;;19.90;100.00;101558.38;5037696;28;20041;-85
2023/10/01 10:48:04;;;;;;;9.63;3.85;;;20.00;99.90;;;20.07;100.00;101561.13;5004274;28;20041;-85
2023/10/01 10:50:45;;;;;;;8.82;3.53;;;20.10;99.90;;;20.21;100.00;101562.41;5019193;28;20034;-87
2023/10/01 10:53:39;;;;;;;8.15;3.50;;;20.20;99.90;;;20.20;100.00;101555.19;5012914;28;20041;-86
2023/10/01 10:56:14;;;;;;;9.02;3.70;;;20.20;99.90;;;20.12;100.00;101558.41;5034236;28;20442;-87
2023/10/01 10:58:53;;;;;;;7.32;3.53;;;20.20;99.90;;;20.00;100.00;101555.75;5012048;28;20092;-87
2023/10/01 11:01:19;;;;;;;8.82;3.50;;;20.00;99.90;;;19.95;100.00;101545.47;5020542;28;20048;-88
2023/10/01 11:03:58;;;;;;;10.02;3.97;;;19.90;99.90;;;19.76;100.00;101533.88;5015760;28;20089;-85
2023/10/01 11:06:42;;;;;;;12.07;4.20;;;19.90;99.90;;;19.84;100.00;101529.78;5011545;28;20091;-86
2023/10/01 11:09:25;;;;;;;8.82;3.72;;;20.00;99.90;;;20.04;100.00;101536.72;5016473;28;20049;-87
2023/10/01 11:12:05;;;;;;;13.60;4.40;;;20.10;99.90;;;20.45;100.00;101533.53;5028755;28;20069;-87
2023/10/01 11:14:36;;;;;;;13.32;4.50;;;20.30;99.90;;;20.82;100.00;101524.47;5020416;28;20072;-86